• Join FlightAware (Why Join?)
  • Login
  • US Flag 
08:21PM EDT


 

Airport Tracker/Info


-or-


 

Live Flight TrackerFlight Track Log ✈ EJA102 ✈ 14-Jun-2013 ✈ KHTO - KTTN

Flight Track Log - Related Links

Times and Time Zones

All times are in EDT time to prevent confusion due to time zone crossing. See the EJA102 flight status page for this flight to view local times or setup timezone preferences in your user account.

Time Position Orientation Groundspeed Altitude Reporting Facility
EDT Latitude Longitude Course Direction KTS MPH feet Rate Location/Type
06:35PM 40.9500 -72.3000 224° Southwest 186 214 1,600  Level New York TRACON
06:36PM 40.9000 -72.3500 217° Southwest 222 255 2,100 1,080 Climbing New York TRACON
06:37PM 40.8792 -72.3933 238° Southwest 230 265 3,400 2,340 Climbing Boston Center
06:38PM 40.8542 -72.4867 251° West 243 280 6,000 3,060 Climbing Boston Center
06:39PM 40.8247 -72.5856 249° West 276 318 9,600 2,100 Climbing Boston Center
06:40PM 40.7414 -72.6128 194° South 274 315 10,300 1,560 Climbing Boston Center
06:41PM 40.5746 -72.7150 224° Southwest  Level FlightAware Approximate
06:41PM 40.6497 -72.6453 195° South 295 339 12,800  Level Boston Center
06:43PM 40.4811 -72.8531 223° Southwest 376 433 16,000 960 Climbing New York Center
06:44PM 40.4022 -72.9461 222° Southwest 416 479 16,000 -420 Level New York Center
06:45PM 40.3083 -73.0572 222° Southwest 421 484 15,200 -900 Descending New York Center
06:46PM 40.2336 -73.1500 223° Southwest 421 484 14,200 -1,080 Descending New York Center
06:47PM 40.1417 -73.2581 222° Southwest 416 479 13,100 -660 Descending New York Center
06:48PM 40.0897 -73.3458 232° Southwest 370 426 13,000 -60 Descending New York Center
06:49PM 40.0267 -73.4708 237° Southwest 369 425 13,000 -180 Level New York Center
06:50PM 39.9678 -73.5769 234° Southwest 388 447 12,700 -1,440 Descending New York Center
06:51PM 39.9150 -73.6856 238° Southwest 382 440 10,200 -2,760 Descending New York Center
06:52PM 39.9128 -73.7831 268° West 322 371 7,300 -3,060 Descending New York Center
06:53PM 39.9478 -73.8711 297° West 255 293 4,200 -1,680 Descending New York Center
06:54PM 39.9753 -73.9400 298° West 237 273 4,000 -120 Descending New York Center
06:55PM 40.0064 -74.0147 299° West 242 278 4,000  Level New York Center